Koyukuk, AK (99754)

10:38 PM AKST on February 27, 2017 (GMT -0900)
Pitka | | Change Station

Elev 151 ft 64.74 °N, 156.94 °W | Updated 30 minutes ago

Partly Cloudy
Partly Cloudy
3 °F
Feels Like -8 °F
N
6
Wind Variable Wind from NW

Today
High -- | Low -- °F
--% Chance of Precip.
Yesterday
High -- | Low -- °F
Precip. -- in
Pressure 30.19 in
Visibility 5.0 miles
Clouds Mostly Cloudy 2600 ft
Mostly Cloudy 3600 ft
Overcast 4700 ft
Windchill -8 °F
Dew Point -4 °F
Humidity 72%
Rainfall 0.00 in
Snow Depth Not available.
8:45 AM 6:42 PM
Waxing Crescent, 4% visible
SPECI PAGA 280708Z AUTO 32005KT 5SM -SN BKN026 BKN036 OVC047 M16/M20 A3019 RMK AO2 P0000 FZRANO
Pressure 30.19 in
Visibility 5.0 miles
Clouds Mostly Cloudy 2600 ft
Mostly Cloudy 3600 ft
Overcast 4700 ft
Windchill -8 °F
Dew Point -4 °F
Humidity 72%
Rainfall 0.00 in
Snow Depth Not available.
8:45 AM 6:42 PM
Waxing Crescent, 4% visible
SPECI PAGA 280708Z AUTO 32005KT 5SM -SN BKN026 BKN036 OVC047 M16/M20 A3019 RMK AO2 P0000 FZRANO

Get Your Daily Forecast Email!

Thanks for signing up!

Be on the lookout for a verification email in your inbox.

You'll start receiving the daily forecast at 8 AM.

×

10-Day Weather Forecast

Almanac

Astronomy

Feb. 27, 2017 Rise Set
Actual Time
Civil Twilight
Nautical Twilight
Astronomical Twilight
Moon
Length of Visible Light
Length of Day
Tomorrow will be .
, % of the Moon is Illuminated

Today's Extremes

State Highs State Lows

Community

WunderPhotos

Upload Photos

1,962,540 photos uploaded!

WunderBlog® & News

Nearby

Air Quality

  Air Quality AQ Index Pollutant
Not available.

Snow Depth

Station Depth Elevation

Earthquake Activity

City Distance Mag. Time & Date
Minimum magnitude displayed is 2.5.

Coastal Water Temperatures

Place Temperature

Stations

Nearby Weather Stations

Station Location Temp. Windchill Dew Point Humidity Wind Precip. Elev Updated Type
                   

Watches & Warnings

There are currently no watches in effect.